Time;durP1;ratioP1;P1;durP2;ratioP2;P2;SDS_P1;SDS_P2;PMS_P1;PMS_P2;Temp;Humidity;BMP_temperature;BMP_pressure;BME280_temperature;BME280_humidity;BME280_pressure;Samples;Min_cycle;Max_cycle;Signal;HPM_P1;HPM_P2
2024/04/06 00:00:02;;;;;;;2.23;1.33;;;;;;;20.13;55.63;97510.44;5008701;28;20218;-26
2024/04/06 00:02:28;;;;;;;2.00;1.40;;;;;;;20.14;55.35;97508.78;5001125;28;20206;-27
2024/04/06 00:04:56;;;;;;;2.03;1.70;;;;;;;20.13;55.41;97504.50;5004395;28;20264;-26
2024/04/06 00:07:23;;;;;;;1.60;1.40;;;;;;;20.11;55.45;97508.63;5013048;28;20225;-28
2024/04/06 00:09:48;;;;;;;1.70;1.60;;;;;;;20.09;55.42;97510.25;5013520;28;20229;-29
2024/04/06 00:12:14;;;;;;;1.97;1.60;;;;;;;20.08;55.57;97505.97;5011882;28;20293;-26
2024/04/06 00:14:40;;;;;;;2.20;1.40;;;;;;;20.07;55.56;97515.31;5008237;28;20202;-27
2024/04/06 00:17:05;;;;;;;1.43;1.33;;;;;;;20.08;55.47;97514.50;5010898;28;20344;-28
2024/04/06 00:19:32;;;;;;;1.90;1.60;;;;;;;20.07;55.58;97507.66;5005522;28;20210;-29
2024/04/06 00:21:58;;;;;;;1.50;1.40;;;;;;;20.10;55.48;97512.88;5000862;28;20223;-27
2024/04/06 00:24:24;;;;;;;1.57;1.43;;;;;;;20.11;55.62;97516.28;5007721;28;20214;-27
2024/04/06 00:26:50;;;;;;;1.33;1.23;;;;;;;20.10;55.42;97514.56;5010307;28;20595;-28
2024/04/06 00:29:16;;;;;;;2.23;1.60;;;;;;;20.11;55.67;97516.28;5002260;28;20222;-27
2024/04/06 00:31:42;;;;;;;2.43;1.70;;;;;;;20.11;55.52;97517.16;5003658;28;20246;-28
2024/04/06 00:34:07;;;;;;;1.53;1.43;;;;;;;20.11;55.51;97512.06;5008935;28;20619;-30
2024/04/06 00:36:33;;;;;;;1.97;1.50;;;;;;;20.13;55.42;97517.25;5002407;28;20194;-25
2024/04/06 00:38:59;;;;;;;1.40;1.30;;;;;;;20.13;55.46;97507.91;5008194;28;20212;-28
2024/04/06 00:41:24;;;;;;;1.90;1.50;;;;;;;20.10;55.71;97519.66;5010350;28;20249;-28
2024/04/06 00:43:50;;;;;;;2.00;1.50;;;;;;;20.07;55.52;97522.13;5008281;28;20586;-28
2024/04/06 00:46:16;;;;;;;1.60;1.50;;;;;;;20.07;55.40;97525.50;5003285;28;20225;-26
2024/04/06 00:48:41;;;;;;;1.57;1.37;;;;;;;20.07;55.49;97519.56;5003568;28;20214;-25
2024/04/06 00:51:07;;;;;;;1.67;1.57;;;;;;;20.07;55.66;97517.00;5007244;28;20233;-28
2024/04/06 00:53:33;;;;;;;1.50;1.40;;;;;;;20.07;55.57;97515.31;5002142;28;20203;-27
2024/04/06 00:55:59;;;;;;;1.50;1.40;;;;;;;20.08;55.51;97505.97;5002784;28;20211;-27
2024/04/06 00:58:25;;;;;;;2.60;1.67;;;;;;;20.10;55.76;97504.34;4998225;28;20235;-28
2024/04/06 01:00:51;;;;;;;1.47;1.37;;;;;;;20.08;55.37;97500.88;4986057;28;20235;-36
2024/04/06 01:03:16;;;;;;;1.40;1.30;;;;;;;20.10;55.54;97505.22;4999797;28;20207;-26
2024/04/06 01:05:42;;;;;;;1.60;1.50;;;;;;;20.08;55.39;97511.09;4995557;28;20220;-34
2024/04/06 01:08:07;;;;;;;1.77;1.30;;;;;;;20.11;55.38;97513.75;5010844;28;20282;-27
2024/04/06 01:10:33;;;;;;;1.57;1.43;;;;;;;20.11;55.42;97519.72;5001634;28;20227;-33
2024/04/06 01:12:59;;;;;;;1.60;1.50;;;;;;;20.09;55.34;97513.69;5002146;28;20588;-29
2024/04/06 01:15:25;;;;;;;1.50;1.40;;;;;;;20.07;55.61;97522.13;4989300;28;20267;-26
2024/04/06 01:17:56;;;;;;;1.50;1.40;;;;;;;20.08;55.46;97527.28;4977731;28;20207;-27
2024/04/06 01:20:22;;;;;;;2.50;1.70;;;;;;;20.08;55.32;97522.16;5000514;28;20231;-29
2024/04/06 01:22:47;;;;;;;1.60;1.40;;;;;;;20.08;55.68;97524.72;5010723;28;20272;-26
2024/04/06 01:25:13;;;;;;;1.77;1.57;;;;;;;20.09;55.55;97520.47;5002688;28;20206;-26
2024/04/06 01:27:39;;;;;;;1.50;1.40;;;;;;;20.10;55.71;97520.50;5011786;28;20258;-27
2024/04/06 01:30:05;;;;;;;1.80;1.47;;;;;;;20.11;55.28;97519.72;5014310;28;20238;-30
2024/04/06 01:32:31;;;;;;;1.60;1.50;;;;;;;20.12;55.52;97525.66;4986906;28;20203;-27
2024/04/06 01:34:59;;;;;;;1.60;1.50;;;;;;;20.06;55.49;97508.47;5004090;28;20224;-28
2024/04/06 01:37:25;;;;;;;1.50;1.40;;;;;;;20.13;55.29;97518.09;5009423;28;20252;-27
2024/04/06 01:39:50;;;;;;;1.73;1.60;;;;;;;20.14;55.36;97516.44;5004158;28;20215;-30
2024/04/06 01:42:16;;;;;;;1.73;1.60;;;;;;;20.14;55.44;97513.88;4999638;28;20313;-29
2024/04/06 01:44:42;;;;;;;1.43;1.33;;;;;;;20.14;55.45;97514.75;5004744;28;20341;-27
2024/04/06 01:47:07;;;;;;;1.90;1.50;;;;;;;20.15;55.27;97519.03;5005332;28;20249;-27
2024/04/06 01:49:33;;;;;;;1.60;1.40;;;;;;;20.13;55.60;97519.81;5005625;28;20662;-26
2024/04/06 01:51:58;;;;;;;1.73;1.60;;;;;;;20.11;55.34;97524.81;4991146;28;20226;-26
2024/04/06 01:54:24;;;;;;;1.70;1.60;;;;;;;20.11;55.42;97524.81;5002870;28;20207;-26
2024/04/06 01:56:50;;;;;;;2.23;1.47;;;;;;;20.09;55.62;97520.47;5006363;28;20209;-27
2024/04/06 01:59:16;;;;;;;2.53;1.50;;;;;;;20.11;55.62;97522.28;5010744;28;20661;-30
2024/04/06 02:01:43;;;;;;;1.57;1.40;;;;;;;20.13;55.33;97527.47;5010746;28;20230;-30
2024/04/06 02:04:09;;;;;;;1.50;1.40;;;;;;;20.13;55.29;97520.66;5003844;28;20461;-26
2024/04/06 02:06:35;;;;;;;1.60;1.50;;;;;;;20.14;55.40;97524.97;5008216;28;20222;-29
2024/04/06 02:09:01;;;;;;;1.80;1.40;;;;;;;20.14;55.37;97524.97;5003393;28;20211;-26
2024/04/06 02:11:26;;;;;;;1.70;1.60;;;;;;;20.15;55.07;97530.91;5005781;28;20747;-27
2024/04/06 02:13:52;;;;;;;1.53;1.43;;;;;;;20.15;55.41;97534.34;5003942;28;20203;-29
2024/04/06 02:16:18;;;;;;;1.40;1.30;;;;;;;20.14;55.26;97527.50;4997939;28;20285;-28
2024/04/06 02:18:43;;;;;;;1.40;1.30;;;;;;;20.16;55.30;97537.78;5010201;28;20449;-26
2024/04/06 02:21:10;;;;;;;1.30;1.20;;;;;;;20.16;55.41;97537.78;4996466;28;20306;-28
2024/04/06 02:23:36;;;;;;;1.40;1.30;;;;;;;20.13;55.36;97542.78;5011357;28;20245;-26
2024/04/06 02:26:01;;;;;;;1.40;1.30;;;;;;;20.11;55.54;97546.91;5013044;28;20214;-27
2024/04/06 02:28:27;;;;;;;1.60;1.50;;;;;;;20.08;55.54;97547.69;5008488;28;20290;-28
2024/04/06 02:30:53;;;;;;;1.87;1.43;;;;;;;20.11;55.31;97545.22;4991760;28;20223;-29
2024/04/06 02:33:18;;;;;;;1.80;1.40;;;;;;;20.12;55.56;97551.19;5005414;28;20294;-30
2024/04/06 02:35:44;;;;;;;1.40;1.30;;;;;;;20.13;55.33;97553.81;5009220;28;20625;-27
2024/04/06 02:38:10;;;;;;;2.03;1.47;;;;;;;20.14;55.32;97557.25;5008358;28;20490;-27
2024/04/06 02:40:35;;;;;;;1.60;1.50;;;;;;;20.14;55.32;97554.69;5003759;28;20229;-27
2024/04/06 02:43:01;;;;;;;1.60;1.50;;;;;;;20.14;55.25;97549.59;4999875;28;20293;-27
2024/04/06 02:45:27;;;;;;;1.50;1.40;;;;;;;20.15;55.24;97556.44;5007917;28;20202;-26
2024/04/06 02:47:53;;;;;;;1.50;1.40;;;;;;;20.15;55.39;97552.22;4999666;28;20701;-26
2024/04/06 02:50:18;;;;;;;1.57;1.47;;;;;;;20.14;55.38;97555.59;5005755;28;20229;-27
2024/04/06 02:52:44;;;;;;;1.50;1.40;;;;;;;20.15;55.43;97562.41;4999591;28;20204;-26
2024/04/06 02:55:10;;;;;;;1.60;1.50;;;;;;;20.16;55.23;97558.19;5003321;28;20203;-27
2024/04/06 02:57:36;;;;;;;1.63;1.53;;;;;;;20.13;55.38;97563.19;4998461;28;20254;-27
2024/04/06 03:00:02;;;;;;;1.60;1.50;;;;;;;20.11;55.64;97565.66;5001190;28;20221;-28
2024/04/06 03:02:28;;;;;;;1.23;1.13;;;;;;;20.11;55.36;97558.00;5003618;28;20684;-27
2024/04/06 03:04:53;;;;;;;1.60;1.50;;;;;;;20.11;55.54;97562.22;5004625;28;20214;-25
2024/04/06 03:07:19;;;;;;;1.53;1.40;;;;;;;20.11;55.34;97565.66;5000430;28;20218;-26
2024/04/06 03:09:46;;;;;;;1.50;1.40;;;;;;;20.11;55.39;97560.53;5008823;28;20202;-28
2024/04/06 03:12:12;;;;;;;1.50;1.40;;;;;;;20.14;55.56;97559.81;5011561;28;20217;-27
2024/04/06 03:14:37;;;;;;;1.40;1.30;;;;;;;20.07;55.30;97551.03;5012340;28;20661;-26
2024/04/06 03:17:03;;;;;;;1.40;1.30;;;;;;;20.14;55.37;97563.22;5001868;28;20290;-29
2024/04/06 03:19:29;;;;;;;1.87;1.50;;;;;;;20.14;55.37;97557.25;5000791;28;20209;-28
2024/04/06 03:21:54;;;;;;;1.50;1.30;;;;;;;20.15;55.55;97553.88;5001473;28;20240;-26
2024/04/06 03:24:20;;;;;;;1.67;1.57;;;;;;;20.15;55.41;97552.22;5007830;28;20217;-27
2024/04/06 03:26:45;;;;;;;1.53;1.43;;;;;;;20.13;55.43;97548.72;5001687;28;20219;-28
2024/04/06 03:29:11;;;;;;;1.60;1.50;;;;;;;20.15;55.38;97543.66;5007138;28;20238;-29
2024/04/06 03:31:37;;;;;;;1.93;1.50;;;;;;;20.13;55.34;97548.72;5001587;28;20234;-28
2024/04/06 03:34:02;;;;;;;1.40;1.30;;;;;;;20.10;55.40;97543.47;5001846;28;20265;-26
2024/04/06 03:36:28;;;;;;;1.50;1.40;;;;;;;20.06;55.27;97535.66;5008479;28;20556;-29
2024/04/06 03:38:54;;;;;;;1.40;1.30;;;;;;;20.08;55.69;97534.91;4995816;28;20210;-27
2024/04/06 03:41:19;;;;;;;1.87;1.43;;;;;;;20.08;55.42;97532.38;5006210;28;20273;-30
2024/04/06 03:43:45;;;;;;;1.53;1.43;;;;;;;20.12;55.28;97530.78;5002436;28;20293;-27
2024/04/06 03:46:10;;;;;;;1.50;1.40;;;;;;;20.13;55.29;97532.56;5007367;28;20291;-26
2024/04/06 03:48:36;;;;;;;1.40;1.30;;;;;;;20.12;55.43;97524.00;5008163;28;20213;-28
2024/04/06 03:51:01;;;;;;;1.40;1.30;;;;;;;20.13;55.36;97527.47;5005468;28;20726;-27
2024/04/06 03:53:32;;;;;;;1.50;1.40;;;;;;;20.13;55.34;97530.84;5001856;28;20203;-26
2024/04/06 03:55:57;;;;;;;1.63;1.53;;;;;;;20.15;55.46;97533.47;5004546;28;20838;-26
2024/04/06 03:58:23;;;;;;;1.47;1.37;;;;;;;20.14;55.25;97529.19;5006608;28;20206;-27
2024/04/06 04:00:49;;;;;;;2.30;1.60;;;;;;;20.14;55.47;97536.84;4999855;28;20657;-27
2024/04/06 04:03:14;;;;;;;1.40;1.30;;;;;;;20.15;55.28;97530.91;5002293;28;20207;-28
2024/04/06 04:05:40;;;;;;;1.47;1.37;;;;;;;20.11;55.33;97526.50;4995922;28;20199;-27
2024/04/06 04:08:06;;;;;;;1.37;1.27;;;;;;;20.11;55.37;97531.59;5002926;28;20302;-27
2024/04/06 04:10:31;;;;;;;1.60;1.50;;;;;;;20.09;55.34;97525.56;5009101;28;20300;-27
2024/04/06 04:12:57;;;;;;;1.70;1.40;;;;;;;20.08;55.47;97527.28;5005247;28;20690;-28
2024/04/06 04:15:23;;;;;;;1.67;1.37;;;;;;;20.07;55.41;97522.13;5012328;28;20207;-28
2024/04/06 04:17:49;;;;;;;1.50;1.40;;;;;;;20.10;55.39;97525.63;5006924;28;20540;-30
2024/04/06 04:20:15;;;;;;;1.43;1.33;;;;;;;20.09;55.32;97515.34;5005687;28;20237;-26
2024/04/06 04:22:40;;;;;;;1.60;1.50;;;;;;;20.03;55.47;97503.28;5008472;28;20245;-34
2024/04/06 04:25:07;;;;;;;1.53;1.40;;;;;;;20.13;55.32;97523.22;5007309;28;20210;-27
2024/04/06 04:27:33;;;;;;;1.60;1.50;;;;;;;20.05;55.41;97504.19;5007612;28;20599;-26
2024/04/06 04:29:59;;;;;;;1.53;1.43;;;;;;;20.13;55.43;97524.91;4999708;28;20215;-27
2024/04/06 04:32:24;;;;;;;1.43;1.33;;;;;;;20.13;55.36;97525.75;5004602;28;20207;-27
2024/04/06 04:34:50;;;;;;;1.40;1.30;;;;;;;20.13;55.32;97528.31;5003368;28;20281;-29
2024/04/06 04:37:16;;;;;;;1.10;1.10;;;;;;;20.13;55.36;97533.41;5011377;28;20225;-29
2024/04/06 04:39:41;;;;;;;1.87;1.60;;;;;;;20.10;55.21;97535.81;5012426;28;20262;-27
2024/04/06 04:42:07;;;;;;;1.70;1.60;;;;;;;20.08;55.76;97534.91;5013113;28;20229;-28
2024/04/06 04:44:33;;;;;;;1.60;1.50;;;;;;;20.08;55.33;97540.03;5011851;28;20213;-27
2024/04/06 04:46:58;;;;;;;1.40;1.30;;;;;;;20.08;55.47;97544.25;4995001;28;20229;-28
2024/04/06 04:49:25;;;;;;;2.10;1.50;;;;;;;20.08;55.62;97547.69;5011951;28;20206;-26
2024/04/06 04:51:51;;;;;;;1.20;1.10;;;;;;;20.10;55.46;97547.72;4997937;28;20366;-27
2024/04/06 04:54:17;;;;;;;1.43;1.33;;;;;;;20.11;55.28;97560.53;5003121;28;20215;-29
2024/04/06 04:56:43;;;;;;;1.47;1.37;;;;;;;20.11;55.33;97552.00;5012800;28;20206;-28
2024/04/06 04:59:09;;;;;;;1.20;1.20;;;;;;;20.12;55.46;97569.03;5005047;28;20587;-28
2024/04/06 05:01:34;;;;;;;1.40;1.30;;;;;;;20.12;55.51;97569.03;5010227;28;20233;-26
2024/04/06 05:04:00;;;;;;;1.30;1.20;;;;;;;20.11;55.53;97570.75;5007915;28;20944;-26
2024/04/06 05:06:25;;;;;;;1.37;1.27;;;;;;;20.11;55.44;97569.88;5008203;28;20230;-27
2024/04/06 05:08:51;;;;;;;1.40;1.30;;;;;;;20.13;55.41;97566.56;5013876;28;20210;-28
2024/04/06 05:11:17;;;;;;;1.50;1.40;;;;;;;20.12;55.35;97563.94;5009881;28;20232;-27
2024/04/06 05:13:42;;;;;;;1.40;1.30;;;;;;;20.09;55.32;97572.38;5009536;28;20272;-28
2024/04/06 05:16:08;;;;;;;1.77;1.20;;;;;;;20.08;55.34;97575.75;5002537;28;20659;-27
2024/04/06 05:18:33;;;;;;;1.60;1.50;;;;;;;20.08;55.26;97579.97;5006002;28;20260;-31
2024/04/06 05:21:00;;;;;;;1.50;1.40;;;;;;;20.07;55.52;97579.09;4999927;28;20237;-27
2024/04/06 05:23:27;;;;;;;1.73;1.40;;;;;;;20.06;55.65;97579.91;5006988;28;20206;-28
2024/04/06 05:25:53;;;;;;;1.33;1.23;;;;;;;20.09;55.38;97597.00;5008292;28;20215;-27
2024/04/06 05:28:20;;;;;;;1.40;1.30;;;;;;;20.10;55.45;97596.22;5008582;28;20293;-27
2024/04/06 05:30:48;;;;;;;1.40;1.30;;;;;;;20.11;55.49;97590.28;5010282;28;20579;-26
2024/04/06 05:33:15;;;;;;;1.40;1.30;;;;;;;20.11;55.40;97591.16;5004940;28;20233;-30
2024/04/06 05:35:41;;;;;;;1.47;1.37;;;;;;;20.11;55.35;97580.06;5005370;28;20210;-27
2024/04/06 05:38:07;;;;;;;1.50;1.40;;;;;;;20.12;55.25;97584.34;5000549;28;20207;-26
2024/04/06 05:40:36;;;;;;;1.40;1.30;;;;;;;20.13;55.29;97593.78;5014576;28;20240;-26
2024/04/06 05:43:02;;;;;;;1.30;1.20;;;;;;;20.13;55.35;97591.25;5010302;28;20214;-25
2024/04/06 05:45:27;;;;;;;1.40;1.30;;;;;;;20.13;55.43;97599.75;5015658;28;20703;-28
2024/04/06 05:47:53;;;;;;;1.50;1.40;;;;;;;20.10;55.45;97611.50;5003601;28;20218;-37
2024/04/06 05:50:19;;;;;;;1.50;1.40;;;;;;;20.08;55.37;97614.00;5009842;28;20265;-27
2024/04/06 05:52:44;;;;;;;1.30;1.20;;;;;;;20.09;55.30;97612.31;5011042;28;20289;-26
2024/04/06 05:55:10;;;;;;;1.60;1.50;;;;;;;20.07;55.40;97609.69;4997731;28;20211;-27
2024/04/06 05:57:36;;;;;;;1.43;1.33;;;;;;;20.07;55.27;97607.16;5001967;28;20207;-28
2024/04/06 06:00:01;;;;;;;1.37;1.27;;;;;;;20.09;55.28;97610.63;5013667;28;20624;-32
2024/04/06 06:02:27;;;;;;;1.40;1.30;;;;;;;20.09;55.25;97607.19;5014600;28;20661;-26
2024/04/06 06:04:53;;;;;;;1.50;1.40;;;;;;;20.10;55.27;97606.41;5004889;28;20214;-29
2024/04/06 06:07:20;;;;;;;1.60;1.50;;;;;;;20.11;55.21;97606.47;5012032;28;20754;-26
2024/04/06 06:09:46;;;;;;;1.30;1.20;;;;;;;20.11;55.35;97611.56;4999297;28;20251;-29
2024/04/06 06:12:11;;;;;;;1.50;1.40;;;;;;;20.11;55.31;97609.03;5013505;28;20325;-26
2024/04/06 06:14:37;;;;;;;1.53;1.43;;;;;;;20.13;55.24;97609.09;5000932;28;20214;-27
2024/04/06 06:17:03;;;;;;;1.20;1.20;;;;;;;20.14;55.37;97618.50;5008839;28;20210;-27
2024/04/06 06:19:28;;;;;;;1.40;1.30;;;;;;;20.12;55.34;97620.06;5010776;28;20721;-28
2024/04/06 06:21:54;;;;;;;1.63;1.53;;;;;;;20.08;55.38;97613.13;5006241;28;20263;-26
2024/04/06 06:24:19;;;;;;;1.60;1.50;;;;;;;20.08;55.51;97618.22;5014421;28;20557;-26
2024/04/06 06:26:45;;;;;;;2.83;1.40;;;;;;;20.07;55.42;97616.50;5014065;28;20226;-27
2024/04/06 06:29:10;;;;;;;1.43;1.33;;;;;;;20.06;55.49;97623.28;5008800;28;20218;-27
2024/04/06 06:31:36;;;;;;;1.30;1.20;;;;;;;20.06;55.45;97620.72;5009819;28;20311;-26
2024/04/06 06:34:02;;;;;;;1.50;1.40;;;;;;;20.08;55.49;97623.34;5010045;28;20303;-27
2024/04/06 06:36:27;;;;;;;1.40;1.30;;;;;;;20.08;55.39;97629.31;5002702;28;20198;-27
2024/04/06 06:38:55;;;;;;;1.30;1.20;;;;;;;20.09;55.33;97641.25;5013549;28;20218;-27
2024/04/06 06:41:20;;;;;;;1.60;1.50;;;;;;;20.11;55.44;97634.53;5006411;28;20237;-27
2024/04/06 06:43:46;;;;;;;1.40;1.30;;;;;;;20.13;55.49;97643.13;5013784;28;20214;-32
2024/04/06 06:46:11;;;;;;;1.60;1.50;;;;;;;20.14;55.28;97638.91;5002270;28;20213;-28
2024/04/06 06:48:37;;;;;;;1.30;1.20;;;;;;;20.13;55.26;97645.69;4994950;28;20282;-28
2024/04/06 06:51:03;;;;;;;1.63;1.53;;;;;;;20.14;55.09;97644.88;5008751;28;20234;-28
2024/04/06 06:53:29;;;;;;;1.50;1.40;;;;;;;20.14;55.17;97646.56;5010541;28;20213;-26
2024/04/06 06:55:54;;;;;;;1.60;1.50;;;;;;;20.12;55.47;97643.03;5009088;28;20303;-27
2024/04/06 06:58:20;;;;;;;1.50;1.40;;;;;;;20.11;55.35;97644.75;5011717;28;20206;-27
2024/04/06 07:00:46;;;;;;;2.20;1.83;;;;;;;20.10;55.45;97645.53;5000884;28;20598;-26
2024/04/06 07:03:11;;;;;;;1.50;1.40;;;;;;;20.11;55.79;97651.50;5013893;28;20214;-26
2024/04/06 07:05:38;;;;;;;1.43;1.33;;;;;;;20.11;55.17;97646.41;5008313;28;20214;-26
2024/04/06 07:08:05;;;;;;;1.60;1.50;;;;;;;20.13;55.67;97650.78;5007031;28;20743;-27
2024/04/06 07:10:37;;;;;;;1.60;1.50;;;;;;;20.13;55.56;97655.03;5002446;28;20317;-30
2024/04/06 07:13:03;;;;;;;1.63;1.40;;;;;;;20.16;55.56;97658.53;4996555;28;20209;-29
2024/04/06 07:15:28;;;;;;;1.70;1.60;;;;;;;20.16;55.35;97644.94;5012454;28;20233;-26
2024/04/06 07:17:54;;;;;;;1.70;1.60;;;;;;;20.17;55.38;97654.31;5005654;28;20318;-28
2024/04/06 07:20:19;;;;;;;1.73;1.50;;;;;;;20.16;55.27;97652.59;5000830;28;20225;-26
2024/04/06 07:22:45;;;;;;;1.50;1.40;;;;;;;20.16;55.25;97661.09;5006987;28;20226;-29
2024/04/06 07:25:11;;;;;;;1.57;1.47;;;;;;;20.17;55.39;97657.75;5001602;28;20697;-28
2024/04/06 07:27:36;;;;;;;1.93;1.43;;;;;;;20.15;55.44;97656.81;5006783;28;20218;-29
2024/04/06 07:30:03;;;;;;;3.53;1.60;;;;;;;20.14;55.51;97660.19;5008624;28;20315;-29
2024/04/06 07:32:28;;;;;;;1.60;1.50;;;;;;;20.13;55.52;97655.03;5010301;28;20680;-27
2024/04/06 07:34:54;;;;;;;1.90;1.57;;;;;;;20.13;55.43;97649.94;5017254;28;20210;-26
2024/04/06 07:37:19;;;;;;;1.60;1.50;;;;;;;20.14;55.34;97651.66;4993962;28;20214;-29
2024/04/06 07:39:45;;;;;;;1.70;1.60;;;;;;;20.14;55.28;97647.44;5007467;28;20293;-29
2024/04/06 07:42:11;;;;;;;4.80;1.53;;;;;;;20.16;54.98;97644.94;5012249;28;20473;-26
2024/04/06 07:44:36;;;;;;;1.80;1.70;;;;;;;20.16;53.85;97650.88;4997387;28;20649;-27
2024/04/06 07:47:02;;;;;;;1.77;1.50;;;;;;;20.16;54.52;97648.34;5000965;28;20301;-27
2024/04/06 07:49:29;;;;;;;1.50;1.40;;;;;;;20.18;54.77;97648.41;5009333;28;20267;-28
2024/04/06 07:51:54;;;;;;;1.97;1.70;;;;;;;20.18;54.87;97648.41;5009886;28;20234;-26
2024/04/06 07:54:20;;;;;;;1.70;1.60;;;;;;;20.18;54.92;97650.94;5012530;28;20214;-32
2024/04/06 07:56:45;;;;;;;4.27;1.50;;;;;;;20.19;55.02;97647.59;5012331;28;20212;-27
2024/04/06 07:59:11;;;;;;;1.43;1.33;;;;;;;20.19;54.96;97656.09;5014277;28;20670;-26
2024/04/06 08:01:36;;;;;;;1.50;1.40;;;;;;;20.18;55.02;97661.16;5005787;28;20308;-28
2024/04/06 08:04:02;;;;;;;1.50;1.40;;;;;;;20.16;55.08;97675.56;5010208;28;20214;-32
2024/04/06 08:06:28;;;;;;;1.63;1.50;;;;;;;20.15;55.18;97661.91;5007253;28;20624;-26
2024/04/06 08:08:53;;;;;;;1.60;1.50;;;;;;;20.15;55.08;97664.47;5007123;28;20302;-27
2024/04/06 08:11:19;;;;;;;1.83;1.73;;;;;;;20.16;55.03;97667.91;5007146;28;20593;-27
2024/04/06 08:13:44;;;;;;;1.60;1.50;;;;;;;20.15;55.04;97672.13;5009073;28;20286;-27
2024/04/06 08:16:10;;;;;;;1.60;1.50;;;;;;;20.17;55.16;97669.63;5013392;28;20375;-26
2024/04/06 08:18:36;;;;;;;3.50;1.60;;;;;;;20.18;55.21;97676.47;5007628;28;20657;-26
2024/04/06 08:21:01;;;;;;;1.60;1.50;;;;;;;20.17;55.23;97680.72;5008226;28;20241;-26
2024/04/06 08:23:27;;;;;;;1.97;1.43;;;;;;;20.19;54.87;97680.78;5004950;28;20207;-27
2024/04/06 08:25:53;;;;;;;1.60;1.50;;;;;;;20.19;55.21;97681.63;5016359;28;20267;-27
2024/04/06 08:28:19;;;;;;;2.60;1.37;;;;;;;20.18;55.10;97686.66;5015180;28;20724;-26
2024/04/06 08:30:44;;;;;;;1.67;1.50;;;;;;;20.16;55.35;97684.06;5012726;28;20218;-27
2024/04/06 08:33:10;;;;;;;2.77;1.40;;;;;;;20.16;55.57;97695.97;5007926;28;20288;-25
2024/04/06 08:35:37;;;;;;;1.53;1.43;;;;;;;20.16;55.13;97690.88;5007349;28;20685;-28
2024/04/06 08:38:03;;;;;;;2.50;1.63;;;;;;;20.15;55.24;97694.22;5012410;28;20203;-27
2024/04/06 08:40:29;;;;;;;1.70;1.60;;;;;;;20.17;55.03;97697.69;5018399;28;20229;-26
2024/04/06 08:42:56;;;;;;;4.00;1.73;;;;;;;20.15;55.02;97692.53;4987609;28;20206;-26
2024/04/06 08:45:22;;;;;;;3.77;1.73;;;;;;;20.17;55.34;97693.47;5013785;28;20210;-28
2024/04/06 08:47:47;;;;;;;2.77;1.90;;;;;;;20.17;54.94;97683.28;4988600;28;20222;-27
2024/04/06 08:50:14;;;;;;;2.07;1.70;;;;;;;20.19;54.95;97688.44;4983202;28;20240;-26
2024/04/06 08:52:39;;;;;;;2.20;1.60;;;;;;;20.19;54.98;97686.72;5009066;28;20582;-28
2024/04/06 08:55:06;;;;;;;3.40;1.90;;;;;;;20.19;54.85;97689.28;5007769;28;20202;-29
2024/04/06 08:57:39;;;;;;;2.23;1.47;;;;;;;20.20;55.10;97683.38;4994528;28;20693;-26
2024/04/06 09:00:12;;;;;;;3.20;1.80;;;;;;;20.20;55.22;97683.38;5011715;28;20221;-29
2024/04/06 09:02:38;;;;;;;7.00;1.90;;;;;;;20.19;55.08;97678.22;5011457;28;20616;-27
2024/04/06 09:05:04;;;;;;;3.33;1.93;;;;;;;20.17;54.95;97679.84;5007320;28;20249;-28
2024/04/06 09:07:30;;;;;;;2.90;1.83;;;;;;;20.16;55.04;97685.75;5015213;28;20723;-27
2024/04/06 09:09:56;;;;;;;4.10;1.70;;;;;;;20.16;55.24;97685.75;5011269;28;20233;-30
2024/04/06 09:12:21;;;;;;;4.57;1.73;;;;;;;20.18;55.06;97684.13;5006628;28;20207;-27
2024/04/06 09:14:50;;;;;;;4.90;1.80;;;;;;;20.17;55.08;97670.50;5002366;28;20203;-32
2024/04/06 09:17:17;;;;;;;3.27;1.60;;;;;;;20.19;55.15;97665.47;5007261;28;20198;-26
2024/04/06 09:19:43;;;;;;;5.07;1.73;;;;;;;20.17;54.89;97662.84;5015560;28;20206;-28
2024/04/06 09:22:09;;;;;;;2.70;1.63;;;;;;;20.19;55.00;97666.31;5006884;28;20225;-26
2024/04/06 09:24:35;;;;;;;4.27;1.70;;;;;;;20.19;54.87;97665.47;5008343;28;20619;-27
2024/04/06 09:27:08;;;;;;;2.43;1.80;;;;;;;20.20;54.91;97669.75;5000776;28;20226;-27
2024/04/06 09:29:34;;;;;;;2.30;1.87;;;;;;;20.18;55.03;97664.59;5001201;28;20243;-26
2024/04/06 09:32:04;;;;;;;1.73;1.37;;;;;;;20.20;55.26;97670.63;5002739;28;20237;-35
2024/04/06 09:34:30;;;;;;;2.77;1.50;;;;;;;20.21;55.02;97668.91;5004457;28;20264;-27
2024/04/06 09:37:01;;;;;;;1.93;1.60;;;;;;;20.18;55.03;97659.47;5004629;28;20210;-26
2024/04/06 09:39:31;;;;;;;2.80;1.63;;;;;;;20.19;55.12;97655.25;4999251;28;20214;-28
2024/04/06 09:41:58;;;;;;;2.57;1.70;;;;;;;20.21;55.14;97657.03;5011923;28;20233;-27
2024/04/06 09:44:26;;;;;;;2.10;1.70;;;;;;;20.21;55.01;97661.25;5006277;28;20234;-26
2024/04/06 09:46:51;;;;;;;3.93;1.50;;;;;;;20.21;54.90;97657.03;4983532;28;20222;-27
2024/04/06 09:49:17;;;;;;;2.47;1.67;;;;;;;20.21;55.19;97659.59;5010197;28;20731;-29
2024/04/06 09:51:42;;;;;;;3.23;1.80;;;;;;;20.23;54.90;97657.97;4973325;28;20276;-26
2024/04/06 09:54:08;;;;;;;4.17;1.77;;;;;;;20.22;55.05;97660.47;5005079;28;20470;-27
2024/04/06 09:56:34;;;;;;;1.87;1.70;;;;;;;20.22;54.88;97653.66;4999181;28;20577;-28
2024/04/06 09:58:59;;;;;;;3.07;1.83;;;;;;;20.21;54.96;97649.38;5011756;28;20284;-28
2024/04/06 10:01:26;;;;;;;2.67;1.50;;;;;;;20.21;54.96;97649.38;5009213;28;20356;-28
2024/04/06 10:03:52;;;;;;;1.50;1.40;;;;;;;20.21;55.08;97651.06;5010618;28;20670;-27
2024/04/06 10:06:28;;;;;;;4.70;2.00;;;;;;;20.15;54.91;97627.88;4995401;28;20210;-31
2024/04/06 10:08:59;;;;;;;1.57;1.47;;;;;;;20.19;54.96;97637.41;5007816;28;20205;-28
2024/04/06 10:11:27;;;;;;;3.60;1.50;;;;;;;20.19;55.24;97630.59;4986098;28;20218;-27
2024/04/06 10:13:53;;;;;;;3.30;1.60;;;;;;;20.19;54.96;97640.78;5000067;28;20209;-26
2024/04/06 10:16:21;;;;;;;4.90;2.10;;;;;;;20.20;54.66;97645.09;5012279;28;21331;-29
2024/04/06 10:18:47;;;;;;;2.13;1.50;;;;;;;20.20;55.05;97637.44;5008158;28;20198;-27
2024/04/06 10:21:14;;;;;;;3.63;1.70;;;;;;;20.22;54.03;97634.97;5014604;28;20226;-28
2024/04/06 10:23:40;;;;;;;6.03;1.80;;;;;;;20.24;54.23;97635.84;4991601;28;20205;-30
2024/04/06 10:26:13;;;;;;;5.67;2.07;;;;;;;20.21;52.44;97630.66;5011362;28;20281;-27
2024/04/06 10:28:40;;;;;;;5.77;1.80;;;;;;;20.23;53.82;97629.91;4996725;28;20228;-30
2024/04/06 10:31:06;;;;;;;3.40;1.73;;;;;;;20.25;54.11;97630.81;5014970;28;20222;-26
2024/04/06 10:33:31;;;;;;;1.60;1.40;;;;;;;20.26;54.28;97629.13;4990716;28;20219;-27
2024/04/06 10:35:57;;;;;;;4.90;1.60;;;;;;;20.29;54.30;97630.13;5008839;28;20228;-30
2024/04/06 10:38:23;;;;;;;1.47;1.37;;;;;;;20.30;54.38;97631.84;5006518;28;20649;-32
2024/04/06 10:40:48;;;;;;;1.90;1.50;;;;;;;20.31;54.51;97632.72;5008992;28;20230;-26
2024/04/06 10:43:15;;;;;;;4.13;1.90;;;;;;;20.32;54.84;97629.34;4991803;28;20202;-27
2024/04/06 10:45:40;;;;;;;3.93;1.67;;;;;;;20.34;54.54;97630.28;5002539;28;20213;-26
2024/04/06 10:48:06;;;;;;;6.57;1.97;;;;;;;20.35;54.53;97626.91;5007581;28;20226;-27
2024/04/06 10:50:32;;;;;;;6.20;1.97;;;;;;;20.36;54.31;97620.97;4999636;28;20269;-28
2024/04/06 10:52:59;;;;;;;4.40;2.10;;;;;;;20.37;54.28;97623.59;4994749;28;20206;-27
2024/04/06 10:55:26;;;;;;;5.13;2.13;;;;;;;20.38;54.41;97621.91;4989178;28;20232;-26
2024/04/06 10:57:51;;;;;;;6.77;2.60;;;;;;;20.38;54.92;97622.78;4975822;28;20198;-29
2024/04/06 11:00:17;;;;;;;7.00;1.90;;;;;;;20.32;54.60;97616.59;4981031;28;20229;-26
2024/04/06 11:02:43;;;;;;;7.30;2.40;;;;;;;20.30;54.85;97618.22;5001021;28;20212;-26
2024/04/06 11:05:09;;;;;;;7.20;2.10;;;;;;;20.28;54.88;97624.97;5011001;28;20305;-28
2024/04/06 11:07:37;;;;;;;3.57;2.17;;;;;;;20.28;55.16;97619.88;5000279;28;20222;-27
2024/04/06 11:10:03;;;;;;;4.40;2.03;;;;;;;20.26;54.90;97616.38;5006102;28;20230;-27
2024/04/06 11:12:29;;;;;;;5.03;1.97;;;;;;;20.28;54.79;97607.09;5013364;28;20221;-27
2024/04/06 11:14:58;;;;;;;9.33;2.70;;;;;;;20.29;54.85;97602.06;4995174;28;20202;-27
2024/04/06 11:17:24;;;;;;;4.73;2.43;;;;;;;20.29;54.80;97596.06;5009118;28;20701;-28
2024/04/06 11:19:58;;;;;;;6.97;2.43;;;;;;;20.28;54.75;97592.63;5012408;28;20270;-26
2024/04/06 11:22:24;;;;;;;4.13;2.20;;;;;;;20.21;54.68;97577.06;5004095;28;20198;-32
2024/04/06 11:24:49;;;;;;;4.37;2.00;;;;;;;20.31;54.82;97585.09;4995811;28;20269;-29
2024/04/06 11:27:19;;;;;;;5.77;2.10;;;;;;;20.31;54.84;97584.25;5002376;28;20257;-30